createdAt,value
2016-12-08T00:00:16.121Z,1.4
2016-12-08T00:00:36.663Z,1.4
2016-12-08T00:00:57.202Z,1.4
2016-12-08T00:01:17.743Z,1.4
2016-12-08T00:01:38.283Z,1.3
2016-12-08T00:01:58.830Z,1.4
2016-12-08T00:02:19.363Z,1.4
2016-12-08T00:02:39.929Z,1.3
2016-12-08T00:03:00.480Z,1.3
2016-12-08T00:03:21.046Z,1.3
2016-12-08T00:03:41.561Z,1.3
2016-12-08T00:04:02.088Z,1.4
2016-12-08T00:04:22.615Z,1.3
2016-12-08T00:04:43.149Z,1.4
2016-12-08T00:05:03.682Z,1.4
2016-12-08T00:05:24.222Z,1.3
2016-12-08T00:05:44.765Z,1.3
2016-12-08T00:06:05.305Z,1.3
2016-12-08T00:06:25.899Z,1.4
2016-12-08T00:06:46.461Z,1.4
2016-12-08T00:07:06.976Z,1.3
2016-12-08T00:07:27.568Z,1.3
2016-12-08T00:07:48.113Z,1.3
2016-12-08T00:08:08.635Z,1.4
2016-12-08T00:08:29.186Z,1.4
2016-12-08T00:08:49.752Z,1.3
2016-12-08T00:09:10.305Z,1.3
2016-12-08T00:09:30.845Z,1.3
2016-12-08T00:09:51.382Z,1.3
2016-12-08T00:10:11.900Z,1.3
2016-12-08T00:10:32.435Z,1.4
2016-12-08T00:10:52.996Z,1.4
2016-12-08T00:11:13.535Z,1.4
2016-12-08T00:11:34.109Z,1.3
2016-12-08T00:11:54.677Z,1.4
2016-12-08T00:12:15.195Z,1.4
2016-12-08T00:12:35.722Z,1.3
2016-12-08T00:12:56.256Z,1.3
2016-12-08T00:13:16.779Z,1.4
2016-12-08T00:13:37.328Z,1.4
2016-12-08T00:13:57.851Z,1.3
2016-12-08T00:14:18.420Z,1.4
2016-12-08T00:14:38.950Z,1.4
2016-12-08T00:14:59.487Z,1.4
2016-12-08T00:15:20.053Z,1.3
2016-12-08T00:15:40.578Z,1.3
2016-12-08T00:16:01.093Z,1.3
2016-12-08T00:16:21.627Z,1.4
2016-12-08T00:16:42.142Z,1.3
2016-12-08T00:17:02.693Z,1.3
2016-12-08T00:17:23.229Z,1.3
2016-12-08T00:17:43.756Z,1.4
2016-12-08T00:18:04.293Z,1.3
2016-12-08T00:18:24.829Z,1.3
2016-12-08T00:18:45.382Z,1.3
2016-12-08T00:19:05.905Z,1.3
2016-12-08T00:19:26.440Z,1.4
2016-12-08T00:19:46.991Z,1.3
2016-12-08T00:20:07.531Z,1.4
2016-12-08T00:20:28.066Z,1.3
2016-12-08T00:20:48.596Z,1.4
2016-12-08T00:21:09.135Z,1.3
2016-12-08T00:21:29.672Z,1.4
2016-12-08T00:21:50.202Z,1.3
2016-12-08T00:22:10.715Z,1.3
2016-12-08T00:22:31.252Z,1.3
2016-12-08T00:22:51.787Z,1.4
2016-12-08T00:23:12.331Z,1.4
2016-12-08T00:23:32.869Z,1.3
2016-12-08T00:23:53.409Z,1.4
2016-12-08T00:24:13.969Z,1.4
2016-12-08T00:24:34.535Z,1.3
2016-12-08T00:24:55.065Z,1.3
2016-12-08T00:25:15.605Z,1.4
2016-12-08T00:25:36.131Z,1.3
2016-12-08T00:25:56.701Z,1.3
2016-12-08T00:26:17.247Z,1.4
2016-12-08T00:26:37.789Z,1.4
2016-12-08T00:26:58.337Z,1.4
2016-12-08T00:27:18.895Z,1.3
2016-12-08T00:27:39.461Z,1.4
2016-12-08T00:27:59.999Z,1.4
2016-12-08T00:28:20.540Z,1.3
2016-12-08T00:28:41.068Z,1.4
2016-12-08T00:29:01.575Z,1.3
2016-12-08T00:29:22.093Z,1.3
2016-12-08T00:29:42.638Z,1.4
2016-12-08T00:30:03.192Z,1.4
2016-12-08T00:30:23.741Z,1.4
2016-12-08T00:30:44.257Z,1.3
2016-12-08T00:31:04.784Z,1.4
2016-12-08T00:31:25.380Z,1.4
2016-12-08T00:31:45.905Z,1.3
2016-12-08T00:32:06.439Z,1.3
2016-12-08T00:32:26.970Z,1.3
2016-12-08T00:32:47.520Z,1.3
2016-12-08T00:33:08.052Z,1.3
2016-12-08T00:33:28.578Z,1.3
2016-12-08T00:33:49.125Z,1.3
2016-12-08T00:34:09.675Z,1.3
2016-12-08T00:34:30.229Z,1.3
2016-12-08T00:34:50.783Z,1.3
2016-12-08T00:35:11.323Z,1.3
2016-12-08T00:35:31.867Z,1.3
2016-12-08T00:35:52.414Z,1.3
2016-12-08T00:36:12.966Z,1.3
2016-12-08T00:36:33.518Z,1.3
2016-12-08T00:36:54.090Z,1.3
2016-12-08T00:37:14.605Z,1.3
2016-12-08T00:37:35.144Z,1.3
2016-12-08T00:37:55.659Z,1.3
2016-12-08T00:38:16.235Z,1.3
2016-12-08T00:38:36.821Z,1.3
2016-12-08T00:38:57.341Z,1.3
2016-12-08T00:39:17.876Z,1.3
2016-12-08T00:39:38.406Z,1.2
2016-12-08T00:39:58.955Z,1.2
2016-12-08T00:40:19.473Z,1.3
2016-12-08T00:40:40.037Z,1.2
2016-12-08T00:41:00.562Z,1.2
2016-12-08T00:41:21.103Z,1.3
2016-12-08T00:41:41.665Z,1.2
2016-12-08T00:42:02.195Z,1.3
2016-12-08T00:42:22.722Z,1.2
2016-12-08T00:42:43.242Z,1.2
2016-12-08T00:43:03.757Z,1.2
2016-12-08T00:43:24.328Z,1.2
2016-12-08T00:43:44.881Z,1.2
2016-12-08T00:44:05.406Z,1.2
2016-12-08T00:44:25.945Z,1.3
2016-12-08T00:44:46.472Z,1.3
2016-12-08T00:45:07.002Z,1.3
2016-12-08T00:45:27.530Z,1.2
2016-12-08T00:45:48.079Z,1.2
2016-12-08T00:46:08.596Z,1.2
2016-12-08T00:46:29.107Z,1.2
2016-12-08T00:46:49.622Z,1.2
2016-12-08T00:47:10.188Z,1.3
2016-12-08T00:47:30.723Z,1.3
2016-12-08T00:47:51.271Z,1.3
2016-12-08T00:48:11.801Z,1.3
2016-12-08T00:48:32.358Z,1.2
2016-12-08T00:48:52.881Z,1.1
2016-12-08T00:49:13.439Z,1.3
2016-12-08T00:49:33.994Z,1.3
2016-12-08T00:49:54.514Z,1.2
2016-12-08T00:50:15.042Z,1.2
2016-12-08T00:50:35.569Z,1.2
2016-12-08T00:50:56.091Z,1.2
2016-12-08T00:51:16.646Z,1.1
2016-12-08T00:51:37.160Z,1.2
2016-12-08T00:51:57.691Z,1.2
2016-12-08T00:52:18.219Z,1.2
2016-12-08T00:52:38.745Z,1.2
2016-12-08T00:52:59.283Z,1.2
2016-12-08T00:53:19.818Z,1.2
2016-12-08T00:53:40.355Z,1.2
2016-12-08T00:54:00.924Z,1.1
2016-12-08T00:54:21.458Z,1.2
2016-12-08T00:54:42.019Z,1.2
2016-12-08T00:55:02.557Z,1.2
2016-12-08T00:55:23.138Z,1.2
2016-12-08T00:55:43.695Z,1.2
2016-12-08T00:56:04.238Z,1.2
2016-12-08T00:56:24.760Z,1.2
2016-12-08T00:56:45.276Z,1.2
2016-12-08T00:57:05.820Z,1.1
2016-12-08T00:57:26.343Z,1.2
2016-12-08T00:57:46.886Z,1.2
2016-12-08T00:58:07.409Z,1.3
2016-12-08T00:58:27.975Z,1.2
2016-12-08T00:58:48.534Z,1.2
2016-12-08T00:59:09.054Z,1.3
2016-12-08T00:59:29.576Z,1.3
2016-12-08T00:59:50.084Z,1.2
2016-12-08T01:00:10.649Z,1.3
2016-12-08T01:00:31.174Z,1.2
2016-12-08T01:00:51.707Z,1.3
2016-12-08T01:01:12.247Z,1.2
2016-12-08T01:01:32.772Z,1.3
2016-12-08T01:01:56.044Z,1.2
2016-12-08T01:02:16.581Z,1.2
2016-12-08T01:02:37.103Z,1.2
2016-12-08T01:02:57.627Z,1.2
2016-12-08T01:03:18.179Z,1.3
2016-12-08T01:03:38.736Z,1.2
2016-12-08T01:03:59.251Z,1.3
2016-12-08T01:04:19.781Z,1.3
2016-12-08T01:04:40.320Z,1.3
2016-12-08T01:05:00.881Z,1.2
2016-12-08T01:05:21.415Z,1.3
2016-12-08T01:05:41.970Z,1.3
2016-12-08T01:06:02.504Z,1.2
2016-12-08T01:06:23.057Z,1.3
2016-12-08T01:06:43.614Z,1.3
2016-12-08T01:07:04.165Z,1.2
2016-12-08T01:07:24.730Z,1.3
2016-12-08T01:07:45.326Z,1.2
2016-12-08T01:08:05.870Z,1.3
2016-12-08T01:08:26.404Z,1.3
2016-12-08T01:08:46.928Z,1.3
2016-12-08T01:09:07.490Z,1.1
2016-12-08T01:09:28.007Z,1.2
2016-12-08T01:09:48.553Z,1.1
2016-12-08T01:10:09.093Z,1.2
2016-12-08T01:10:29.630Z,1.3
2016-12-08T01:10:50.172Z,1.2
2016-12-08T01:11:10.697Z,1.2
2016-12-08T01:11:31.233Z,1.2
2016-12-08T01:11:51.767Z,1.2
2016-12-08T01:12:12.311Z,1.2
2016-12-08T01:12:32.845Z,1.2
2016-12-08T01:12:53.373Z,1.2
2016-12-08T01:13:13.896Z,1.2
2016-12-08T01:13:34.456Z,1.2
2016-12-08T01:13:55.000Z,1.1
2016-12-08T01:14:15.546Z,1.1
2016-12-08T01:14:36.075Z,1.1
2016-12-08T01:14:56.618Z,1.1
2016-12-08T01:15:17.142Z,1.1
2016-12-08T01:15:37.682Z,1.2
2016-12-08T01:15:58.246Z,1.1
2016-12-08T01:16:18.771Z,1.1
2016-12-08T01:16:39.315Z,1.1
2016-12-08T01:16:59.847Z,1.1
2016-12-08T01:17:20.379Z,1.1
2016-12-08T01:17:40.945Z,1.1
2016-12-08T01:18:01.496Z,1
2016-12-08T01:18:22.039Z,1.1
2016-12-08T01:18:42.587Z,1.1
2016-12-08T01:19:03.132Z,1.1
2016-12-08T01:19:23.661Z,1.1
2016-12-08T01:19:44.203Z,1.1
2016-12-08T01:20:04.739Z,1
2016-12-08T01:20:25.295Z,1
2016-12-08T01:20:45.803Z,1
2016-12-08T01:21:06.319Z,1
2016-12-08T01:21:26.864Z,1.1
2016-12-08T01:21:47.420Z,1
2016-12-08T01:23:06.674Z,1.1
2016-12-08T01:23:27.248Z,1.1
2016-12-08T01:23:47.776Z,1
2016-12-08T01:24:08.311Z,1.1
2016-12-08T01:24:28.875Z,1.1
2016-12-08T01:24:49.429Z,1.1
2016-12-08T01:25:09.957Z,1
2016-12-08T01:25:30.483Z,1.1
2016-12-08T01:25:51.013Z,1
2016-12-08T01:26:11.541Z,1
2016-12-08T01:26:32.096Z,1
2016-12-08T01:26:52.621Z,1.1
2016-12-08T01:27:13.182Z,1.1
2016-12-08T01:27:33.734Z,1.1
2016-12-08T01:27:54.282Z,1.1
2016-12-08T01:28:14.804Z,1.1
2016-12-08T01:28:35.343Z,1.1
2016-12-08T01:28:55.867Z,1.1
2016-12-08T01:29:16.429Z,1.1
2016-12-08T01:29:36.969Z,1.1
2016-12-08T01:29:57.517Z,1.1
2016-12-08T01:30:18.121Z,1
2016-12-08T01:30:38.652Z,1
2016-12-08T01:30:59.191Z,1
2016-12-08T01:31:19.726Z,1.1
2016-12-08T01:31:40.265Z,1
2016-12-08T01:32:00.805Z,1
2016-12-08T01:32:21.333Z,1
2016-12-08T01:32:41.861Z,1
2016-12-08T01:33:02.385Z,1
2016-12-08T01:33:22.897Z,1
2016-12-08T01:33:43.496Z,1.1
2016-12-08T01:34:04.016Z,1.1
2016-12-08T01:34:24.556Z,1
2016-12-08T01:34:45.105Z,1
2016-12-08T01:35:05.628Z,0.9
2016-12-08T01:35:26.199Z,0.9
2016-12-08T01:35:46.726Z,0.9
2016-12-08T01:36:07.282Z,1
2016-12-08T01:36:27.802Z,0.9
2016-12-08T01:36:48.547Z,0.9
2016-12-08T01:37:09.155Z,1
2016-12-08T01:37:29.660Z,1
2016-12-08T01:37:50.180Z,0.9
2016-12-08T01:38:10.708Z,1
2016-12-08T01:38:31.250Z,0.9
2016-12-08T01:38:51.785Z,1
2016-12-08T01:39:12.338Z,0.9
2016-12-08T01:39:32.868Z,0.9
2016-12-08T01:39:53.422Z,1
2016-12-08T01:40:13.982Z,0.9
2016-12-08T01:40:34.526Z,0.9
2016-12-08T01:40:55.084Z,0.9
2016-12-08T01:41:15.600Z,1
2016-12-08T01:41:36.185Z,0.9
2016-12-08T01:41:56.722Z,0.9
2016-12-08T01:42:17.233Z,0.9
2016-12-08T01:42:37.797Z,0.8
2016-12-08T01:42:58.317Z,0.8
2016-12-08T01:43:18.859Z,0.9
2016-12-08T01:43:39.381Z,0.8
2016-12-08T01:43:59.922Z,0.8
2016-12-08T01:44:20.464Z,0.8
2016-12-08T01:44:41.032Z,0.8
2016-12-08T01:45:01.605Z,0.8
2016-12-08T01:45:22.127Z,0.8
2016-12-08T01:45:42.665Z,0.9
2016-12-08T01:46:03.188Z,0.8
2016-12-08T01:46:23.734Z,0.8
2016-12-08T01:46:44.291Z,0.8
2016-12-08T01:47:04.841Z,0.8
2016-12-08T01:47:25.374Z,0.8
2016-12-08T01:47:45.917Z,0.7
2016-12-08T01:48:06.456Z,0.7
2016-12-08T01:48:26.979Z,0.8
2016-12-08T01:48:47.548Z,0.8
2016-12-08T01:49:08.085Z,0.8
2016-12-08T01:49:28.654Z,0.8
2016-12-08T01:49:49.193Z,0.7
2016-12-08T01:50:09.702Z,0.7
2016-12-08T01:50:30.227Z,0.7
2016-12-08T01:50:50.758Z,0.8
2016-12-08T01:51:11.301Z,0.7
2016-12-08T01:51:31.843Z,0.8
2016-12-08T01:51:52.378Z,0.7
2016-12-08T01:52:12.934Z,0.8
2016-12-08T01:52:33.496Z,0.7
2016-12-08T01:52:54.032Z,0.8
2016-12-08T01:53:14.577Z,0.8
2016-12-08T01:53:35.104Z,0.7
2016-12-08T01:53:55.626Z,0.7
2016-12-08T01:54:16.155Z,0.7
2016-12-08T01:54:36.722Z,0.7
2016-12-08T01:54:57.242Z,0.7
2016-12-08T01:55:17.821Z,0.7
2016-12-08T01:55:38.346Z,0.7
2016-12-08T01:55:58.867Z,0.7
2016-12-08T01:56:19.392Z,0.7
2016-12-08T01:56:39.937Z,0.7
2016-12-08T01:57:00.497Z,0.7
2016-12-08T01:57:21.024Z,0.8
2016-12-08T01:57:41.545Z,0.8
2016-12-08T01:58:02.118Z,0.7
2016-12-08T01:58:22.643Z,0.8
2016-12-08T01:58:43.168Z,0.7
2016-12-08T01:59:03.713Z,0.8
2016-12-08T01:59:24.254Z,0.8
2016-12-08T01:59:44.820Z,0.8
2016-12-08T02:00:05.360Z,0.7
2016-12-08T02:00:25.892Z,0.7
2016-12-08T02:00:46.407Z,0.7
2016-12-08T02:01:06.990Z,0.7
2016-12-08T02:01:27.525Z,0.7
2016-12-08T02:01:48.042Z,0.7
2016-12-08T02:02:08.601Z,0.7
2016-12-08T02:02:29.132Z,0.7
2016-12-08T02:02:49.667Z,0.6
2016-12-08T02:03:10.196Z,0.7
2016-12-08T02:03:30.774Z,0.8
2016-12-08T02:03:51.330Z,0.7
2016-12-08T02:04:11.887Z,0.7
2016-12-08T02:04:32.432Z,0.6
2016-12-08T02:04:52.998Z,0.6
2016-12-08T02:05:13.545Z,0.6
2016-12-08T02:05:34.075Z,0.7
2016-12-08T02:05:54.633Z,0.7
2016-12-08T02:06:15.163Z,0.7
2016-12-08T02:06:35.686Z,0.7
2016-12-08T02:06:56.222Z,0.7
2016-12-08T02:07:16.749Z,0.6
2016-12-08T02:07:37.294Z,0.6
2016-12-08T02:07:57.829Z,0.6
2016-12-08T02:08:18.365Z,0.7
2016-12-08T02:08:38.898Z,0.7
2016-12-08T02:08:59.409Z,0.7
2016-12-08T02:09:19.941Z,0.7
2016-12-08T02:09:40.527Z,0.6
2016-12-08T02:10:01.052Z,0.6
2016-12-08T02:10:21.569Z,0.6
2016-12-08T02:10:42.107Z,0.6
2016-12-08T02:11:02.666Z,0.6
2016-12-08T02:11:23.214Z,0.5
2016-12-08T02:11:43.741Z,0.5
2016-12-08T02:12:04.293Z,0.6
2016-12-08T02:12:24.797Z,0.5
2016-12-08T02:12:45.325Z,0.5
2016-12-08T02:13:05.862Z,0.5
2016-12-08T02:13:26.381Z,0.5
2016-12-08T02:13:46.920Z,0.5
2016-12-08T02:14:07.448Z,0.5
2016-12-08T02:14:27.966Z,0.4
2016-12-08T02:14:48.501Z,0.5
2016-12-08T02:15:09.067Z,0.4
2016-12-08T02:15:29.634Z,0.5
2016-12-08T02:15:50.153Z,0.5
2016-12-08T02:16:10.734Z,0.5
2016-12-08T02:16:31.257Z,0.5
2016-12-08T02:16:51.835Z,0.5
2016-12-08T02:17:12.368Z,0.5
2016-12-08T02:17:32.898Z,0.5
2016-12-08T02:17:53.438Z,0.5
2016-12-08T02:18:13.993Z,0.5
2016-12-08T02:18:34.508Z,0.6
2016-12-08T02:18:55.054Z,0.5
2016-12-08T02:19:15.586Z,0.5
2016-12-08T02:19:36.135Z,0.5
2016-12-08T02:19:56.707Z,0.5
2016-12-08T02:20:17.297Z,0.6
2016-12-08T02:20:37.839Z,0.5
2016-12-08T02:20:58.371Z,0.5
2016-12-08T02:21:18.926Z,0.5
2016-12-08T02:21:39.451Z,0.5
2016-12-08T02:21:59.958Z,0.5
2016-12-08T02:22:20.515Z,0.5
2016-12-08T02:22:41.086Z,0.5
2016-12-08T02:23:01.617Z,0.5
2016-12-08T02:23:22.180Z,0.5
2016-12-08T02:23:42.713Z,0.5
2016-12-08T02:24:03.243Z,0.5
2016-12-08T02:24:23.777Z,0.5
2016-12-08T02:24:44.306Z,0.6
2016-12-08T02:25:04.896Z,0.5
2016-12-08T02:25:25.466Z,0.6
2016-12-08T02:25:46.011Z,0.5
2016-12-08T02:26:06.534Z,0.5
2016-12-08T02:26:27.076Z,0.5
2016-12-08T02:26:47.606Z,0.5
2016-12-08T02:27:08.139Z,0.5
2016-12-08T02:27:28.665Z,0.5
2016-12-08T02:27:49.190Z,0.5
2016-12-08T02:28:09.730Z,0.5
2016-12-08T02:28:30.270Z,0.5
2016-12-08T02:28:53.576Z,0.5
2016-12-08T02:29:14.108Z,0.5
2016-12-08T02:29:34.633Z,0.5
2016-12-08T02:29:55.179Z,0.5
2016-12-08T02:30:15.731Z,0.5
2016-12-08T02:30:36.253Z,0.5
2016-12-08T02:30:56.793Z,0.5
2016-12-08T02:31:17.333Z,0.5
2016-12-08T02:31:37.857Z,0.6
2016-12-08T02:31:58.386Z,0.6
2016-12-08T02:32:18.911Z,0.5
2016-12-08T02:32:39.525Z,0.6
2016-12-08T02:33:00.042Z,0.6
2016-12-08T02:33:20.575Z,0.6
2016-12-08T02:33:41.125Z,0.5
2016-12-08T02:34:01.684Z,0.6
2016-12-08T02:34:22.196Z,0.6
2016-12-08T02:34:42.719Z,0.6
2016-12-08T02:35:03.259Z,0.5
2016-12-08T02:35:23.798Z,0.5
2016-12-08T02:35:44.317Z,0.5
2016-12-08T02:36:04.850Z,0.7
2016-12-08T02:36:25.363Z,0.6
2016-12-08T02:36:45.895Z,0.7
2016-12-08T02:37:06.414Z,0.7
2016-12-08T02:37:26.937Z,0.7
2016-12-08T02:37:47.466Z,0.7
2016-12-08T02:38:07.992Z,0.7
2016-12-08T02:38:28.511Z,0.6
2016-12-08T02:38:49.038Z,0.7
2016-12-08T02:39:09.572Z,0.7
2016-12-08T02:39:30.164Z,0.6
2016-12-08T02:39:50.683Z,0.6
2016-12-08T02:40:11.230Z,0.6
2016-12-08T02:40:31.782Z,0.6
2016-12-08T02:40:52.295Z,0.7
2016-12-08T02:41:12.827Z,0.6
2016-12-08T02:41:33.369Z,0.6
2016-12-08T02:41:53.911Z,0.7
2016-12-08T02:42:14.424Z,0.7
2016-12-08T02:42:35.027Z,0.7
2016-12-08T02:42:55.550Z,0.7
2016-12-08T02:43:16.072Z,0.7
2016-12-08T02:43:36.598Z,0.7
2016-12-08T02:43:57.111Z,0.8
2016-12-08T02:44:17.676Z,0.7
2016-12-08T02:44:38.195Z,0.7
2016-12-08T02:44:58.749Z,0.7
2016-12-08T02:45:19.309Z,0.8
2016-12-08T02:45:39.853Z,0.8
2016-12-08T02:46:00.392Z,0.7
2016-12-08T02:46:20.921Z,0.8
2016-12-08T02:46:41.467Z,0.8
2016-12-08T02:47:02.038Z,0.8
2016-12-08T02:47:22.574Z,0.8
2016-12-08T02:47:43.133Z,0.8
2016-12-08T02:48:03.681Z,0.8
2016-12-08T02:48:24.196Z,0.9
2016-12-08T02:48:44.737Z,0.7
2016-12-08T02:49:05.269Z,0.8
2016-12-08T02:49:25.840Z,0.9
2016-12-08T02:49:46.414Z,0.9
2016-12-08T02:50:06.945Z,0.9
2016-12-08T02:50:27.485Z,0.8
2016-12-08T02:50:48.009Z,0.8
2016-12-08T02:51:08.523Z,0.9
2016-12-08T02:51:29.046Z,0.9
2016-12-08T02:51:49.565Z,0.8
2016-12-08T02:52:10.079Z,0.8
2016-12-08T02:52:30.592Z,0.8
2016-12-08T02:52:51.117Z,0.9
2016-12-08T02:53:11.685Z,0.9
2016-12-08T02:53:32.211Z,0.9
2016-12-08T02:53:52.758Z,0.8
2016-12-08T02:54:13.290Z,0.9
2016-12-08T02:54:33.809Z,0.9
2016-12-08T02:54:54.339Z,0.9
2016-12-08T02:55:14.857Z,0.8
2016-12-08T02:55:35.413Z,0.9
2016-12-08T02:55:55.936Z,1
2016-12-08T02:56:16.463Z,0.9
2016-12-08T02:56:36.980Z,0.9
2016-12-08T02:56:57.504Z,0.9
2016-12-08T02:57:18.072Z,0.9
2016-12-08T02:57:38.604Z,0.9
2016-12-08T02:57:59.124Z,0.9
2016-12-08T02:58:19.678Z,0.9
2016-12-08T02:58:40.206Z,0.9
2016-12-08T02:59:00.743Z,1
2016-12-08T02:59:21.298Z,0.9
2016-12-08T02:59:41.873Z,0.9
2016-12-08T03:00:02.408Z,0.9
2016-12-08T03:00:23.006Z,1
2016-12-08T03:00:43.541Z,0.9
2016-12-08T03:01:04.071Z,1
2016-12-08T03:01:24.614Z,1
2016-12-08T03:01:45.140Z,1
2016-12-08T03:02:05.672Z,0.9
2016-12-08T03:02:26.209Z,0.9
2016-12-08T03:02:46.736Z,0.9
2016-12-08T03:03:07.264Z,0.9
2016-12-08T03:03:27.824Z,0.9
2016-12-08T03:03:48.342Z,0.9
2016-12-08T03:04:08.870Z,0.9
2016-12-08T03:04:29.397Z,1
2016-12-08T03:04:49.943Z,0.9
2016-12-08T03:05:10.494Z,0.9
2016-12-08T03:05:31.036Z,0.9
2016-12-08T03:05:51.573Z,0.9
2016-12-08T03:06:12.125Z,0.9
2016-12-08T03:06:32.672Z,0.9
2016-12-08T03:06:53.211Z,1
2016-12-08T03:07:13.742Z,0.9
2016-12-08T03:07:34.285Z,0.9
2016-12-08T03:07:54.838Z,0.9
2016-12-08T03:08:15.396Z,0.9
2016-12-08T03:08:35.922Z,0.9
2016-12-08T03:08:56.442Z,0.9
2016-12-08T03:09:16.974Z,0.9
2016-12-08T03:09:37.505Z,0.9
2016-12-08T03:09:58.040Z,0.9
2016-12-08T03:10:18.570Z,0.9
2016-12-08T03:10:39.087Z,0.9
2016-12-08T03:10:59.633Z,0.9
2016-12-08T03:11:20.163Z,0.9
2016-12-08T03:11:40.693Z,1
2016-12-08T03:12:01.239Z,0.9
2016-12-08T03:12:21.762Z,1
2016-12-08T03:12:42.290Z,1
2016-12-08T03:13:02.845Z,0.9
2016-12-08T03:13:23.385Z,0.9
2016-12-08T03:13:43.949Z,0.9
2016-12-08T03:14:04.513Z,1
2016-12-08T03:14:25.049Z,0.9
2016-12-08T03:14:45.573Z,0.9
2016-12-08T03:15:06.113Z,1
2016-12-08T03:15:26.644Z,1
2016-12-08T03:15:47.171Z,1
2016-12-08T03:16:07.713Z,1
2016-12-08T03:16:28.253Z,1
2016-12-08T03:16:48.824Z,1.1
2016-12-08T03:17:09.372Z,1
2016-12-08T03:17:29.889Z,1
2016-12-08T03:17:50.419Z,1
2016-12-08T03:18:10.954Z,1
2016-12-08T03:18:31.499Z,1.1
2016-12-08T03:18:52.010Z,1
2016-12-08T03:19:12.538Z,1.1
2016-12-08T03:19:33.072Z,1.1
2016-12-08T03:19:53.614Z,1.1
2016-12-08T03:20:14.149Z,1
2016-12-08T03:20:34.655Z,1
2016-12-08T03:20:55.184Z,1.1
2016-12-08T03:21:15.723Z,1.1
2016-12-08T03:21:36.267Z,1
2016-12-08T03:21:56.826Z,1
2016-12-08T03:22:17.376Z,1.1
2016-12-08T03:22:37.895Z,1.1
2016-12-08T03:22:58.439Z,1
2016-12-08T03:23:18.969Z,1.1
2016-12-08T03:23:39.492Z,1.1
2016-12-08T03:24:00.027Z,1.1
2016-12-08T03:24:20.554Z,1.1
2016-12-08T03:24:41.110Z,1.1
2016-12-08T03:25:01.683Z,1.1
2016-12-08T03:25:22.218Z,1.1
2016-12-08T03:25:42.753Z,1
2016-12-08T03:26:03.340Z,1.2
2016-12-08T03:26:23.875Z,1
2016-12-08T03:26:44.470Z,1.1
2016-12-08T03:27:04.986Z,1.1
2016-12-08T03:27:25.547Z,1.1
2016-12-08T03:27:46.100Z,1
2016-12-08T03:28:06.662Z,1.1
2016-12-08T03:28:27.213Z,1
2016-12-08T03:28:47.761Z,1
2016-12-08T03:29:08.296Z,1.1
2016-12-08T03:29:28.821Z,1
2016-12-08T03:29:49.675Z,1.1
2016-12-08T03:30:10.202Z,1
2016-12-08T03:30:30.759Z,1.1
2016-12-08T03:30:51.279Z,1
2016-12-08T03:31:11.829Z,1.1
2016-12-08T03:31:32.374Z,1.1
2016-12-08T03:31:52.912Z,1.1
2016-12-08T03:32:13.449Z,1
2016-12-08T03:32:33.980Z,1.1
2016-12-08T03:32:54.537Z,1
2016-12-08T03:33:15.097Z,1.1
2016-12-08T03:33:35.646Z,1
2016-12-08T03:33:56.173Z,1.1
2016-12-08T03:34:16.739Z,1.2
2016-12-08T03:34:38.221Z,1.1
2016-12-08T03:34:58.788Z,1.1
2016-12-08T03:35:19.380Z,1.2
2016-12-08T03:35:39.911Z,1.1
2016-12-08T03:36:00.456Z,1.1
2016-12-08T03:36:20.986Z,1.1
2016-12-08T03:36:41.547Z,1.1
2016-12-08T03:37:02.101Z,1.1
2016-12-08T03:37:22.656Z,1.1
2016-12-08T03:37:43.187Z,1.1
2016-12-08T03:38:03.754Z,1.1
2016-12-08T03:38:24.281Z,1.2
2016-12-08T03:38:44.826Z,1.1
2016-12-08T03:39:05.352Z,1.1
2016-12-08T03:39:25.888Z,1.1
2016-12-08T03:39:46.432Z,1.1
2016-12-08T03:40:06.950Z,1.1
2016-12-08T03:40:27.481Z,1.2
2016-12-08T03:40:48.008Z,1.1
2016-12-08T03:41:08.539Z,1.1
2016-12-08T03:41:29.088Z,1.1
2016-12-08T03:41:49.611Z,1.1
2016-12-08T03:42:10.171Z,1.1
2016-12-08T03:42:30.697Z,1.1
2016-12-08T03:43:05.684Z,1.1
2016-12-08T03:43:26.227Z,1.1
2016-12-08T03:43:46.810Z,1.2
2016-12-08T03:44:07.330Z,1.1
2016-12-08T03:44:27.867Z,1.2
2016-12-08T03:44:48.416Z,1.2
2016-12-08T03:45:08.970Z,1.1
2016-12-08T03:45:29.513Z,1.1
2016-12-08T03:45:50.079Z,1.2
2016-12-08T03:46:10.599Z,1.1
2016-12-08T03:46:31.160Z,1.2
2016-12-08T03:46:51.698Z,1.1
2016-12-08T03:47:12.230Z,1.1
2016-12-08T03:47:32.763Z,1.1
2016-12-08T03:47:53.301Z,1.1
2016-12-08T03:48:13.867Z,1.1
2016-12-08T03:48:34.422Z,1.1
2016-12-08T03:48:54.949Z,1.2
2016-12-08T03:49:15.466Z,1.2
2016-12-08T03:49:35.982Z,1.1
2016-12-08T03:49:56.529Z,1.2
2016-12-08T03:50:17.053Z,1.1
2016-12-08T03:50:37.597Z,1.1
2016-12-08T03:50:58.120Z,1.1
2016-12-08T03:51:18.659Z,1.2
2016-12-08T03:51:39.200Z,1.2
2016-12-08T03:51:59.724Z,1.2
2016-12-08T03:52:20.266Z,1.2
2016-12-08T03:52:40.795Z,1.3
2016-12-08T03:53:01.317Z,1.2
2016-12-08T03:53:21.880Z,1.2
2016-12-08T03:53:42.431Z,1.1
2016-12-08T03:54:02.967Z,1.2
2016-12-08T03:54:23.518Z,1.2
2016-12-08T03:54:44.070Z,1.2
2016-12-08T03:55:04.608Z,1.2
2016-12-08T03:55:25.140Z,1.2
2016-12-08T03:55:45.705Z,1.2
2016-12-08T03:56:06.257Z,1.1
2016-12-08T03:56:26.782Z,1.1
2016-12-08T03:56:47.345Z,1.2
2016-12-08T03:57:07.869Z,1.1
2016-12-08T03:57:28.403Z,1.1
2016-12-08T03:57:48.994Z,1.2
2016-12-08T03:58:09.553Z,1.1
2016-12-08T03:58:30.084Z,1.1
2016-12-08T03:58:50.622Z,1.1
2016-12-08T03:59:11.181Z,1.1
2016-12-08T03:59:31.750Z,1.1
2016-12-08T03:59:52.285Z,1.1
2016-12-08T04:00:12.812Z,1.1
2016-12-08T04:00:33.362Z,1.1
2016-12-08T04:00:54.013Z,1.2
2016-12-08T04:01:14.537Z,1.1
2016-12-08T04:01:35.090Z,1.1
2016-12-08T04:01:55.606Z,1.1
2016-12-08T04:02:16.133Z,1.1
2016-12-08T04:02:36.679Z,1.2
2016-12-08T04:02:57.211Z,1.1
2016-12-08T04:03:17.733Z,1.1
2016-12-08T04:03:38.264Z,1.1
2016-12-08T04:03:58.798Z,1.1
2016-12-08T04:04:19.321Z,1.1
2016-12-08T04:04:39.840Z,1.2
2016-12-08T04:05:00.409Z,1
2016-12-08T04:05:20.955Z,1.1
2016-12-08T04:05:41.491Z,1.1
2016-12-08T04:06:02.028Z,1.1
2016-12-08T04:06:22.564Z,1.1
2016-12-08T04:06:43.125Z,1
2016-12-08T04:07:03.662Z,1.1
2016-12-08T04:07:24.216Z,1.1
2016-12-08T04:07:44.734Z,1.1
2016-12-08T04:08:05.267Z,1.1
2016-12-08T04:08:25.837Z,1.1
2016-12-08T04:08:46.392Z,1
2016-12-08T04:09:06.956Z,1.1
2016-12-08T04:09:27.469Z,1
2016-12-08T04:09:48.005Z,1.1
2016-12-08T04:10:08.567Z,1.1
2016-12-08T04:10:29.109Z,1.1
2016-12-08T04:10:49.650Z,1.1
2016-12-08T04:11:10.208Z,1
2016-12-08T04:11:30.733Z,1.1
2016-12-08T04:11:51.314Z,1.1
2016-12-08T04:12:11.855Z,1
2016-12-08T04:12:32.375Z,1
2016-12-08T04:12:52.924Z,1.1
2016-12-08T04:13:13.460Z,1
2016-12-08T04:13:33.997Z,1
2016-12-08T04:13:54.528Z,1.1
2016-12-08T04:14:15.072Z,1.1
2016-12-08T04:14:35.619Z,1.1
2016-12-08T04:14:56.177Z,1
2016-12-08T04:15:16.732Z,1
2016-12-08T04:15:37.292Z,1
2016-12-08T04:15:57.820Z,1.1
2016-12-08T04:16:18.353Z,1.1
2016-12-08T04:16:38.891Z,1
2016-12-08T04:16:59.413Z,1
2016-12-08T04:17:19.948Z,1
2016-12-08T04:17:40.497Z,1
2016-12-08T04:18:01.039Z,1
2016-12-08T04:18:21.573Z,1.1
2016-12-08T04:18:42.135Z,1
2016-12-08T04:19:02.693Z,1.1
2016-12-08T04:19:23.224Z,1
2016-12-08T04:19:43.764Z,1.1
2016-12-08T04:20:04.321Z,1.1
2016-12-08T04:20:24.855Z,1.1
2016-12-08T04:20:45.399Z,1
2016-12-08T04:21:05.956Z,1
2016-12-08T04:21:26.465Z,1.1
2016-12-08T04:21:46.982Z,1.1
2016-12-08T04:22:07.554Z,1.2
2016-12-08T04:22:28.090Z,1.1
2016-12-08T04:22:48.636Z,1.1
2016-12-08T04:23:09.187Z,1.1
2016-12-08T04:23:29.712Z,1.1
2016-12-08T04:23:50.255Z,1.1
2016-12-08T04:24:10.790Z,1.2
2016-12-08T04:24:31.309Z,1.1
2016-12-08T04:24:51.867Z,1.1
2016-12-08T04:25:12.396Z,1.1
2016-12-08T04:25:32.923Z,1.2
2016-12-08T04:25:53.485Z,1.2
2016-12-08T04:26:14.042Z,1.2
2016-12-08T04:26:34.605Z,1.2
2016-12-08T04:26:55.131Z,1.1
2016-12-08T04:27:15.685Z,1.2
2016-12-08T04:27:36.216Z,1.2
2016-12-08T04:27:56.748Z,1.1
2016-12-08T04:28:17.278Z,1.2
2016-12-08T04:28:37.842Z,1.2
2016-12-08T04:28:58.394Z,1.1
2016-12-08T04:29:18.940Z,1.1
2016-12-08T04:29:39.459Z,1.1
2016-12-08T04:30:00.043Z,1.1
2016-12-08T04:30:20.570Z,1.1
2016-12-08T04:30:41.117Z,1.1
2016-12-08T04:31:01.677Z,1.1
2016-12-08T04:31:22.220Z,1.1
2016-12-08T04:31:42.763Z,1.1
2016-12-08T04:32:03.342Z,1.1
2016-12-08T04:32:23.875Z,1
2016-12-08T04:32:44.427Z,1.1
2016-12-08T04:33:04.958Z,1.1
2016-12-08T04:33:25.464Z,1.2
2016-12-08T04:33:45.995Z,1.1
2016-12-08T04:34:06.520Z,1.1
2016-12-08T04:34:27.093Z,1
2016-12-08T04:34:47.623Z,1.1
2016-12-08T04:35:08.363Z,1.1
2016-12-08T04:35:28.887Z,1.2
2016-12-08T04:35:49.415Z,1.1
2016-12-08T04:36:09.938Z,1
2016-12-08T04:36:30.483Z,1.1
2016-12-08T04:36:51.030Z,1
2016-12-08T04:37:11.559Z,1
2016-12-08T04:37:32.154Z,1.1
2016-12-08T04:37:52.708Z,1.1
2016-12-08T04:38:13.237Z,1
2016-12-08T04:38:33.770Z,1
2016-12-08T04:38:54.309Z,1
2016-12-08T04:39:14.873Z,1.1
2016-12-08T04:39:35.409Z,1
2016-12-08T04:39:55.938Z,1.1
2016-12-08T04:40:16.519Z,1.1
2016-12-08T04:40:37.042Z,1
2016-12-08T04:40:57.570Z,1
2016-12-08T04:41:18.090Z,0.9
2016-12-08T04:41:38.634Z,1
2016-12-08T04:41:59.173Z,0.9
2016-12-08T04:42:19.702Z,0.9
2016-12-08T04:42:40.227Z,1
2016-12-08T04:43:00.782Z,0.9
2016-12-08T04:43:21.310Z,0.9
2016-12-08T04:43:41.869Z,1
2016-12-08T04:44:02.386Z,0.9
2016-12-08T04:44:22.944Z,0.9
2016-12-08T04:44:43.463Z,1
2016-12-08T04:45:04.005Z,1
2016-12-08T04:45:24.533Z,0.8
2016-12-08T04:45:45.079Z,0.9
2016-12-08T04:46:05.635Z,0.8
2016-12-08T04:46:26.170Z,0.9
2016-12-08T04:46:46.725Z,0.9